sensor_id;sensor_type;location;lat;lon;timestamp;temperature;humidity
19110;DHT22;9687;50.836;12.060;2024-02-23T00:00:49;13.50;85.10
19110;DHT22;9687;50.836;12.060;2024-02-23T00:03:16;13.50;85.20
19110;DHT22;9687;50.836;12.060;2024-02-23T00:05:44;13.50;84.70
19110;DHT22;9687;50.836;12.060;2024-02-23T00:08:12;13.50;84.70
19110;DHT22;9687;50.836;12.060;2024-02-23T00:10:41;13.60;84.70
19110;DHT22;9687;50.836;12.060;2024-02-23T00:13:08;13.50;84.40
19110;DHT22;9687;50.836;12.060;2024-02-23T00:15:35;13.50;83.80
19110;DHT22;9687;50.836;12.060;2024-02-23T00:18:03;13.50;83.80
19110;DHT22;9687;50.836;12.060;2024-02-23T00:20:32;13.50;84.00
19110;DHT22;9687;50.836;12.060;2024-02-23T00:22:59;13.50;84.00
19110;DHT22;9687;50.836;12.060;2024-02-23T00:25:26;13.50;83.90
19110;DHT22;9687;50.836;12.060;2024-02-23T00:27:56;13.40;83.60
19110;DHT22;9687;50.836;12.060;2024-02-23T00:30:23;13.40;83.50
19110;DHT22;9687;50.836;12.060;2024-02-23T00:32:51;13.40;83.20
19110;DHT22;9687;50.836;12.060;2024-02-23T00:35:18;13.40;83.20
19110;DHT22;9687;50.836;12.060;2024-02-23T00:37:46;13.40;83.20
19110;DHT22;9687;50.836;12.060;2024-02-23T00:40:13;13.40;83.20
19110;DHT22;9687;50.836;12.060;2024-02-23T00:42:41;13.40;83.00
19110;DHT22;9687;50.836;12.060;2024-02-23T00:45:10;13.40;82.80
19110;DHT22;9687;50.836;12.060;2024-02-23T00:47:38;13.40;82.80
19110;DHT22;9687;50.836;12.060;2024-02-23T00:50:05;13.40;82.60
19110;DHT22;9687;50.836;12.060;2024-02-23T00:52:33;13.30;82.60
19110;DHT22;9687;50.836;12.060;2024-02-23T00:55:01;13.30;82.30
19110;DHT22;9687;50.836;12.060;2024-02-23T00:57:30;13.30;82.30
19110;DHT22;9687;50.836;12.060;2024-02-23T00:59:57;13.30;82.00
19110;DHT22;9687;50.836;12.060;2024-02-23T01:02:26;13.30;82.00
19110;DHT22;9687;50.836;12.060;2024-02-23T01:04:53;13.30;82.00
19110;DHT22;9687;50.836;12.060;2024-02-23T01:07:22;13.30;81.80
19110;DHT22;9687;50.836;12.060;2024-02-23T01:09:50;13.30;81.70
19110;DHT22;9687;50.836;12.060;2024-02-23T01:12:17;13.20;81.50
19110;DHT22;9687;50.836;12.060;2024-02-23T01:14:46;13.20;81.10
19110;DHT22;9687;50.836;12.060;2024-02-23T01:17:14;13.20;81.20
19110;DHT22;9687;50.836;12.060;2024-02-23T01:19:44;13.20;80.90
19110;DHT22;9687;50.836;12.060;2024-02-23T01:22:11;13.20;81.10
19110;DHT22;9687;50.836;12.060;2024-02-23T01:24:40;13.20;80.70
19110;DHT22;9687;50.836;12.060;2024-02-23T01:27:08;13.20;80.70
19110;DHT22;9687;50.836;12.060;2024-02-23T01:29:35;13.10;80.20
19110;DHT22;9687;50.836;12.060;2024-02-23T01:32:03;13.10;80.10
19110;DHT22;9687;50.836;12.060;2024-02-23T01:34:30;13.20;79.90
19110;DHT22;9687;50.836;12.060;2024-02-23T01:36:59;13.10;79.50
19110;DHT22;9687;50.836;12.060;2024-02-23T01:39:26;13.10;79.10
19110;DHT22;9687;50.836;12.060;2024-02-23T01:41:54;13.10;78.70
19110;DHT22;9687;50.836;12.060;2024-02-23T01:44:22;13.10;78.50
19110;DHT22;9687;50.836;12.060;2024-02-23T01:46:49;13.00;78.00
19110;DHT22;9687;50.836;12.060;2024-02-23T01:49:17;13.00;77.60
19110;DHT22;9687;50.836;12.060;2024-02-23T01:51:45;13.00;77.40
19110;DHT22;9687;50.836;12.060;2024-02-23T01:54:13;13.00;78.10
19110;DHT22;9687;50.836;12.060;2024-02-23T01:56:40;12.90;76.30
19110;DHT22;9687;50.836;12.060;2024-02-23T01:59:08;12.90;75.10
19110;DHT22;9687;50.836;12.060;2024-02-23T02:01:37;12.80;75.00
19110;DHT22;9687;50.836;12.060;2024-02-23T02:04:05;12.80;74.70
19110;DHT22;9687;50.836;12.060;2024-02-23T02:06:32;12.80;74.10
19110;DHT22;9687;50.836;12.060;2024-02-23T02:08:59;12.70;73.60
19110;DHT22;9687;50.836;12.060;2024-02-23T02:11:28;12.70;73.30
19110;DHT22;9687;50.836;12.060;2024-02-23T02:13:55;12.60;72.90
19110;DHT22;9687;50.836;12.060;2024-02-23T02:16:22;12.60;73.30
19110;DHT22;9687;50.836;12.060;2024-02-23T02:18:50;12.50;72.40
19110;DHT22;9687;50.836;12.060;2024-02-23T02:21:17;12.50;72.20
19110;DHT22;9687;50.836;12.060;2024-02-23T02:23:49;12.50;71.80
19110;DHT22;9687;50.836;12.060;2024-02-23T02:26:17;12.40;71.40
19110;DHT22;9687;50.836;12.060;2024-02-23T02:28:46;12.40;71.10
19110;DHT22;9687;50.836;12.060;2024-02-23T02:31:14;12.40;71.10
19110;DHT22;9687;50.836;12.060;2024-02-23T02:33:41;12.30;71.00
19110;DHT22;9687;50.836;12.060;2024-02-23T02:36:09;12.30;70.90
19110;DHT22;9687;50.836;12.060;2024-02-23T02:38:37;12.30;71.00
19110;DHT22;9687;50.836;12.060;2024-02-23T02:41:04;12.20;71.70
19110;DHT22;9687;50.836;12.060;2024-02-23T02:43:32;12.20;70.90
19110;DHT22;9687;50.836;12.060;2024-02-23T02:46:00;12.20;70.70
19110;DHT22;9687;50.836;12.060;2024-02-23T02:48:29;12.20;70.50
19110;DHT22;9687;50.836;12.060;2024-02-23T02:50:57;12.20;70.60
19110;DHT22;9687;50.836;12.060;2024-02-23T02:53:24;12.20;70.70
19110;DHT22;9687;50.836;12.060;2024-02-23T02:55:53;12.20;70.50
19110;DHT22;9687;50.836;12.060;2024-02-23T02:58:20;12.10;70.20
19110;DHT22;9687;50.836;12.060;2024-02-23T03:00:47;12.10;70.40
19110;DHT22;9687;50.836;12.060;2024-02-23T03:03:16;12.10;70.30
19110;DHT22;9687;50.836;12.060;2024-02-23T03:05:43;12.10;70.20
19110;DHT22;9687;50.836;12.060;2024-02-23T03:08:11;12.10;70.10
19110;DHT22;9687;50.836;12.060;2024-02-23T03:10:38;12.00;70.00
19110;DHT22;9687;50.836;12.060;2024-02-23T03:13:05;12.00;69.60
19110;DHT22;9687;50.836;12.060;2024-02-23T03:15:34;12.00;69.60
19110;DHT22;9687;50.836;12.060;2024-02-23T03:18:02;11.90;69.80
19110;DHT22;9687;50.836;12.060;2024-02-23T03:20:31;11.90;69.80
19110;DHT22;9687;50.836;12.060;2024-02-23T03:22:58;11.90;70.00
19110;DHT22;9687;50.836;12.060;2024-02-23T03:25:27;11.90;69.90
19110;DHT22;9687;50.836;12.060;2024-02-23T03:27:56;11.80;69.40
19110;DHT22;9687;50.836;12.060;2024-02-23T03:30:23;11.80;69.60
19110;DHT22;9687;50.836;12.060;2024-02-23T03:32:52;11.70;69.70
19110;DHT22;9687;50.836;12.060;2024-02-23T03:35:20;11.70;69.90
19110;DHT22;9687;50.836;12.060;2024-02-23T03:37:49;11.80;70.00
19110;DHT22;9687;50.836;12.060;2024-02-23T03:40:16;11.70;69.80
19110;DHT22;9687;50.836;12.060;2024-02-23T03:42:45;11.70;70.00
19110;DHT22;9687;50.836;12.060;2024-02-23T03:45:12;11.70;70.00
19110;DHT22;9687;50.836;12.060;2024-02-23T03:47:39;11.70;70.10
19110;DHT22;9687;50.836;12.060;2024-02-23T03:50:07;11.70;70.10
19110;DHT22;9687;50.836;12.060;2024-02-23T03:52:35;11.70;70.10
19110;DHT22;9687;50.836;12.060;2024-02-23T03:55:05;11.70;70.00
19110;DHT22;9687;50.836;12.060;2024-02-23T03:57:32;11.70;70.10
19110;DHT22;9687;50.836;12.060;2024-02-23T03:59:59;11.70;70.30
19110;DHT22;9687;50.836;12.060;2024-02-23T04:02:27;11.70;70.40
19110;DHT22;9687;50.836;12.060;2024-02-23T04:04:55;11.60;70.40
19110;DHT22;9687;50.836;12.060;2024-02-23T04:07:23;11.60;70.20
19110;DHT22;9687;50.836;12.060;2024-02-23T04:09:52;11.60;70.50
19110;DHT22;9687;50.836;12.060;2024-02-23T04:12:22;11.60;70.30
19110;DHT22;9687;50.836;12.060;2024-02-23T04:14:49;11.60;70.20
19110;DHT22;9687;50.836;12.060;2024-02-23T04:17:16;11.60;70.20
19110;DHT22;9687;50.836;12.060;2024-02-23T04:19:44;11.60;70.30
19110;DHT22;9687;50.836;12.060;2024-02-23T04:22:12;11.60;70.10
19110;DHT22;9687;50.836;12.060;2024-02-23T04:24:39;11.60;69.90
19110;DHT22;9687;50.836;12.060;2024-02-23T04:27:07;11.50;69.70
19110;DHT22;9687;50.836;12.060;2024-02-23T04:29:36;11.50;69.70
19110;DHT22;9687;50.836;12.060;2024-02-23T04:32:03;11.50;69.50
19110;DHT22;9687;50.836;12.060;2024-02-23T04:34:31;11.50;69.30
19110;DHT22;9687;50.836;12.060;2024-02-23T04:36:58;11.40;69.00
19110;DHT22;9687;50.836;12.060;2024-02-23T04:39:26;11.40;69.10
19110;DHT22;9687;50.836;12.060;2024-02-23T04:41:53;11.30;69.00
19110;DHT22;9687;50.836;12.060;2024-02-23T04:44:20;11.30;68.80
19110;DHT22;9687;50.836;12.060;2024-02-23T04:46:49;11.30;68.90
19110;DHT22;9687;50.836;12.060;2024-02-23T04:49:17;11.30;68.80
19110;DHT22;9687;50.836;12.060;2024-02-23T04:51:44;11.20;68.70
19110;DHT22;9687;50.836;12.060;2024-02-23T04:54:12;11.20;68.70
19110;DHT22;9687;50.836;12.060;2024-02-23T04:56:40;11.20;68.60
19110;DHT22;9687;50.836;12.060;2024-02-23T04:59:07;11.20;68.60
19110;DHT22;9687;50.836;12.060;2024-02-23T05:01:35;11.10;68.50
19110;DHT22;9687;50.836;12.060;2024-02-23T05:04:04;11.20;68.70
19110;DHT22;9687;50.836;12.060;2024-02-23T05:06:31;11.10;68.60
19110;DHT22;9687;50.836;12.060;2024-02-23T05:08:59;11.10;69.40
19110;DHT22;9687;50.836;12.060;2024-02-23T05:11:26;11.10;68.80
19110;DHT22;9687;50.836;12.060;2024-02-23T05:13:54;11.10;69.00
19110;DHT22;9687;50.836;12.060;2024-02-23T05:16:21;11.10;69.00
19110;DHT22;9687;50.836;12.060;2024-02-23T05:18:48;11.10;69.00
19110;DHT22;9687;50.836;12.060;2024-02-23T05:21:17;11.20;69.10
19110;DHT22;9687;50.836;12.060;2024-02-23T05:23:45;11.10;68.90
19110;DHT22;9687;50.836;12.060;2024-02-23T05:26:13;11.10;68.90
19110;DHT22;9687;50.836;12.060;2024-02-23T05:28:40;11.20;69.10
19110;DHT22;9687;50.836;12.060;2024-02-23T05:31:09;11.20;69.10
19110;DHT22;9687;50.836;12.060;2024-02-23T05:33:36;11.20;68.90
19110;DHT22;9687;50.836;12.060;2024-02-23T05:36:04;11.10;68.80
19110;DHT22;9687;50.836;12.060;2024-02-23T05:38:33;11.10;68.90
19110;DHT22;9687;50.836;12.060;2024-02-23T05:41:00;11.10;68.80
19110;DHT22;9687;50.836;12.060;2024-02-23T05:43:27;11.10;68.80
19110;DHT22;9687;50.836;12.060;2024-02-23T05:45:55;11.10;68.70
19110;DHT22;9687;50.836;12.060;2024-02-23T05:48:24;11.10;68.80
19110;DHT22;9687;50.836;12.060;2024-02-23T05:50:51;11.10;68.70
19110;DHT22;9687;50.836;12.060;2024-02-23T05:53:19;11.10;68.90
19110;DHT22;9687;50.836;12.060;2024-02-23T05:55:49;11.10;68.90
19110;DHT22;9687;50.836;12.060;2024-02-23T05:58:16;11.10;68.90
19110;DHT22;9687;50.836;12.060;2024-02-23T06:00:44;11.10;68.80
19110;DHT22;9687;50.836;12.060;2024-02-23T06:03:11;11.10;68.80
19110;DHT22;9687;50.836;12.060;2024-02-23T06:05:38;11.10;68.90
19110;DHT22;9687;50.836;12.060;2024-02-23T06:08:06;11.10;68.90
19110;DHT22;9687;50.836;12.060;2024-02-23T06:10:34;11.10;68.90
19110;DHT22;9687;50.836;12.060;2024-02-23T06:13:05;11.10;68.70
19110;DHT22;9687;50.836;12.060;2024-02-23T06:15:32;11.10;68.70
19110;DHT22;9687;50.836;12.060;2024-02-23T06:17:59;11.10;68.60
19110;DHT22;9687;50.836;12.060;2024-02-23T06:20:26;11.10;68.60
19110;DHT22;9687;50.836;12.060;2024-02-23T06:22:53;11.10;68.60
19110;DHT22;9687;50.836;12.060;2024-02-23T06:25:21;11.10;68.50
19110;DHT22;9687;50.836;12.060;2024-02-23T06:27:49;11.10;68.50
19110;DHT22;9687;50.836;12.060;2024-02-23T06:30:17;11.00;68.30
19110;DHT22;9687;50.836;12.060;2024-02-23T06:32:45;11.00;68.40
19110;DHT22;9687;50.836;12.060;2024-02-23T06:35:12;11.00;68.50
19110;DHT22;9687;50.836;12.060;2024-02-23T06:37:40;11.10;68.60
19110;DHT22;9687;50.836;12.060;2024-02-23T06:40:08;11.10;68.50
19110;DHT22;9687;50.836;12.060;2024-02-23T06:42:35;11.10;68.50
19110;DHT22;9687;50.836;12.060;2024-02-23T06:45:03;11.00;68.40
19110;DHT22;9687;50.836;12.060;2024-02-23T06:47:32;11.10;68.50
19110;DHT22;9687;50.836;12.060;2024-02-23T06:49:59;11.00;68.50
19110;DHT22;9687;50.836;12.060;2024-02-23T06:52:26;11.00;68.60
19110;DHT22;9687;50.836;12.060;2024-02-23T06:54:54;11.10;68.70
19110;DHT22;9687;50.836;12.060;2024-02-23T06:57:22;11.10;68.70
19110;DHT22;9687;50.836;12.060;2024-02-23T06:59:51;11.10;68.70
19110;DHT22;9687;50.836;12.060;2024-02-23T07:02:18;11.20;68.90
19110;DHT22;9687;50.836;12.060;2024-02-23T07:04:50;11.20;68.70
19110;DHT22;9687;50.836;12.060;2024-02-23T07:07:20;11.20;68.70
19110;DHT22;9687;50.836;12.060;2024-02-23T07:09:47;11.10;68.50
19110;DHT22;9687;50.836;12.060;2024-02-23T07:12:16;11.10;68.50
19110;DHT22;9687;50.836;12.060;2024-02-23T07:14:44;11.20;68.60
19110;DHT22;9687;50.836;12.060;2024-02-23T07:17:11;11.10;68.00
19110;DHT22;9687;50.836;12.060;2024-02-23T07:19:38;11.10;68.10
19110;DHT22;9687;50.836;12.060;2024-02-23T07:22:07;11.20;68.40
19110;DHT22;9687;50.836;12.060;2024-02-23T07:24:34;11.10;68.40
19110;DHT22;9687;50.836;12.060;2024-02-23T07:27:06;11.10;68.40
19110;DHT22;9687;50.836;12.060;2024-02-23T07:29:33;11.10;68.40
19110;DHT22;9687;50.836;12.060;2024-02-23T07:32:00;11.10;68.30
19110;DHT22;9687;50.836;12.060;2024-02-23T07:34:28;11.10;68.30
19110;DHT22;9687;50.836;12.060;2024-02-23T07:36:56;11.10;68.20
19110;DHT22;9687;50.836;12.060;2024-02-23T07:39:25;11.10;68.10
19110;DHT22;9687;50.836;12.060;2024-02-23T07:41:53;11.10;68.30
19110;DHT22;9687;50.836;12.060;2024-02-23T07:44:20;11.10;68.30
19110;DHT22;9687;50.836;12.060;2024-02-23T07:46:47;11.10;68.40
19110;DHT22;9687;50.836;12.060;2024-02-23T07:49:14;11.10;68.40
19110;DHT22;9687;50.836;12.060;2024-02-23T07:51:42;11.10;68.40
19110;DHT22;9687;50.836;12.060;2024-02-23T07:54:09;11.10;68.30
19110;DHT22;9687;50.836;12.060;2024-02-23T07:56:38;11.10;68.40
19110;DHT22;9687;50.836;12.060;2024-02-23T07:59:06;11.10;68.40
19110;DHT22;9687;50.836;12.060;2024-02-23T08:01:33;11.10;68.40
19110;DHT22;9687;50.836;12.060;2024-02-23T08:04:01;11.10;68.30
19110;DHT22;9687;50.836;12.060;2024-02-23T08:06:29;11.10;68.40
19110;DHT22;9687;50.836;12.060;2024-02-23T08:08:57;11.10;68.40
19110;DHT22;9687;50.836;12.060;2024-02-23T08:11:24;11.10;68.30
19110;DHT22;9687;50.836;12.060;2024-02-23T08:13:53;11.10;68.20
19110;DHT22;9687;50.836;12.060;2024-02-23T08:16:20;11.10;68.10
19110;DHT22;9687;50.836;12.060;2024-02-23T08:18:47;11.20;69.00
19110;DHT22;9687;50.836;12.060;2024-02-23T08:21:15;11.20;68.00
19110;DHT22;9687;50.836;12.060;2024-02-23T08:23:43;11.20;67.90
19110;DHT22;9687;50.836;12.060;2024-02-23T08:26:11;11.20;67.90
19110;DHT22;9687;50.836;12.060;2024-02-23T08:28:41;11.20;67.50
19110;DHT22;9687;50.836;12.060;2024-02-23T08:31:12;11.60;67.80
19110;DHT22;9687;50.836;12.060;2024-02-23T08:33:39;11.20;67.30
19110;DHT22;9687;50.836;12.060;2024-02-23T08:36:06;11.20;67.20
19110;DHT22;9687;50.836;12.060;2024-02-23T08:38:34;11.20;67.00
19110;DHT22;9687;50.836;12.060;2024-02-23T08:41:01;11.20;67.20
19110;DHT22;9687;50.836;12.060;2024-02-23T08:43:29;11.20;67.10
19110;DHT22;9687;50.836;12.060;2024-02-23T08:45:58;11.10;67.10
19110;DHT22;9687;50.836;12.060;2024-02-23T08:48:28;11.10;66.70
19110;DHT22;9687;50.836;12.060;2024-02-23T08:50:55;11.10;66.60
19110;DHT22;9687;50.836;12.060;2024-02-23T08:53:24;11.10;66.90
19110;DHT22;9687;50.836;12.060;2024-02-23T08:55:51;11.20;67.20
19110;DHT22;9687;50.836;12.060;2024-02-23T08:58:18;11.20;67.10
19110;DHT22;9687;50.836;12.060;2024-02-23T09:00:45;11.20;66.80
19110;DHT22;9687;50.836;12.060;2024-02-23T09:03:12;11.30;66.60
19110;DHT22;9687;50.836;12.060;2024-02-23T09:05:42;11.30;66.50
19110;DHT22;9687;50.836;12.060;2024-02-23T09:08:09;11.30;66.20
19110;DHT22;9687;50.836;12.060;2024-02-23T09:10:37;11.40;66.00
19110;DHT22;9687;50.836;12.060;2024-02-23T09:13:04;11.40;65.60
19110;DHT22;9687;50.836;12.060;2024-02-23T09:15:31;11.40;65.40
19110;DHT22;9687;50.836;12.060;2024-02-23T09:17:59;11.30;65.30
19110;DHT22;9687;50.836;12.060;2024-02-23T09:20:26;11.30;64.90
19110;DHT22;9687;50.836;12.060;2024-02-23T09:22:54;11.30;64.60
19110;DHT22;9687;50.836;12.060;2024-02-23T09:25:22;11.30;64.70
19110;DHT22;9687;50.836;12.060;2024-02-23T09:27:49;11.30;64.60
19110;DHT22;9687;50.836;12.060;2024-02-23T09:30:19;11.30;64.60
19110;DHT22;9687;50.836;12.060;2024-02-23T09:32:46;11.40;64.70
19110;DHT22;9687;50.836;12.060;2024-02-23T09:35:13;11.40;64.40
19110;DHT22;9687;50.836;12.060;2024-02-23T09:37:41;11.50;64.30
19110;DHT22;9687;50.836;12.060;2024-02-23T09:40:10;11.50;64.00
19110;DHT22;9687;50.836;12.060;2024-02-23T09:42:38;11.60;63.50
19110;DHT22;9687;50.836;12.060;2024-02-23T09:45:06;11.60;63.30
19110;DHT22;9687;50.836;12.060;2024-02-23T09:47:34;11.60;63.10
19110;DHT22;9687;50.836;12.060;2024-02-23T09:50:03;11.60;62.80
19110;DHT22;9687;50.836;12.060;2024-02-23T09:52:30;11.60;62.80
19110;DHT22;9687;50.836;12.060;2024-02-23T09:54:59;11.60;62.50
19110;DHT22;9687;50.836;12.060;2024-02-23T09:57:28;11.50;61.60
19110;DHT22;9687;50.836;12.060;2024-02-23T09:59:55;11.60;61.50
19110;DHT22;9687;50.836;12.060;2024-02-23T10:02:22;11.60;61.70
19110;DHT22;9687;50.836;12.060;2024-02-23T10:04:49;11.60;62.00
19110;DHT22;9687;50.836;12.060;2024-02-23T10:07:18;11.60;61.90
19110;DHT22;9687;50.836;12.060;2024-02-23T10:09:45;11.70;62.10
19110;DHT22;9687;50.836;12.060;2024-02-23T10:12:15;11.70;62.00
19110;DHT22;9687;50.836;12.060;2024-02-23T10:14:45;11.80;61.90
19110;DHT22;9687;50.836;12.060;2024-02-23T10:17:12;11.80;62.00
19110;DHT22;9687;50.836;12.060;2024-02-23T10:19:39;11.90;62.20
19110;DHT22;9687;50.836;12.060;2024-02-23T10:22:06;12.00;62.00
19110;DHT22;9687;50.836;12.060;2024-02-23T10:24:34;12.00;61.90
19110;DHT22;9687;50.836;12.060;2024-02-23T10:27:03;12.00;61.60
19110;DHT22;9687;50.836;12.060;2024-02-23T10:29:30;12.00;61.20
19110;DHT22;9687;50.836;12.060;2024-02-23T10:31:59;12.00;60.40
19110;DHT22;9687;50.836;12.060;2024-02-23T10:34:29;11.90;61.00
19110;DHT22;9687;50.836;12.060;2024-02-23T10:36:56;11.90;61.10
19110;DHT22;9687;50.836;12.060;2024-02-23T10:39:24;12.00;61.20
19110;DHT22;9687;50.836;12.060;2024-02-23T10:41:56;11.90;61.10
19110;DHT22;9687;50.836;12.060;2024-02-23T10:44:23;11.90;61.40
19110;DHT22;9687;50.836;12.060;2024-02-23T10:46:51;11.90;61.20
19110;DHT22;9687;50.836;12.060;2024-02-23T10:49:22;11.80;61.10
19110;DHT22;9687;50.836;12.060;2024-02-23T10:51:52;11.80;61.20
19110;DHT22;9687;50.836;12.060;2024-02-23T10:54:20;11.80;60.90
19110;DHT22;9687;50.836;12.060;2024-02-23T10:56:48;11.80;60.40
19110;DHT22;9687;50.836;12.060;2024-02-23T10:59:16;11.60;60.50
19110;DHT22;9687;50.836;12.060;2024-02-23T11:01:45;11.60;60.60
19110;DHT22;9687;50.836;12.060;2024-02-23T11:04:14;11.60;60.70
19110;DHT22;9687;50.836;12.060;2024-02-23T11:06:44;11.50;60.70
19110;DHT22;9687;50.836;12.060;2024-02-23T11:09:15;11.50;60.70
19110;DHT22;9687;50.836;12.060;2024-02-23T11:11:50;11.50;60.80
19110;DHT22;9687;50.836;12.060;2024-02-23T11:14:18;11.40;60.70
19110;DHT22;9687;50.836;12.060;2024-02-23T11:16:55;11.30;60.60
19110;DHT22;9687;50.836;12.060;2024-02-23T11:19:31;11.50;60.60
19110;DHT22;9687;50.836;12.060;2024-02-23T11:22:01;11.30;60.60
19110;DHT22;9687;50.836;12.060;2024-02-23T11:24:29;11.40;60.90
19110;DHT22;9687;50.836;12.060;2024-02-23T11:26:58;11.30;60.90
19110;DHT22;9687;50.836;12.060;2024-02-23T11:29:26;11.40;61.20
19110;DHT22;9687;50.836;12.060;2024-02-23T11:31:55;11.40;61.20
19110;DHT22;9687;50.836;12.060;2024-02-23T11:34:27;11.40;61.00
19110;DHT22;9687;50.836;12.060;2024-02-23T11:36:54;11.40;61.10
19110;DHT22;9687;50.836;12.060;2024-02-23T11:39:24;11.40;61.10
19110;DHT22;9687;50.836;12.060;2024-02-23T11:41:53;11.50;61.10
19110;DHT22;9687;50.836;12.060;2024-02-23T11:44:20;11.50;61.30
19110;DHT22;9687;50.836;12.060;2024-02-23T11:46:47;11.50;61.30
19110;DHT22;9687;50.836;12.060;2024-02-23T11:49:15;11.50;61.30
19110;DHT22;9687;50.836;12.060;2024-02-23T11:51:42;11.50;61.40
19110;DHT22;9687;50.836;12.060;2024-02-23T11:54:12;11.50;62.30
19110;DHT22;9687;50.836;12.060;2024-02-23T11:56:42;11.50;61.50
19110;DHT22;9687;50.836;12.060;2024-02-23T11:59:09;11.50;61.60
19110;DHT22;9687;50.836;12.060;2024-02-23T12:01:37;11.40;61.60
19110;DHT22;9687;50.836;12.060;2024-02-23T12:04:04;11.40;61.80
19110;DHT22;9687;50.836;12.060;2024-02-23T12:06:33;11.50;62.00
19110;DHT22;9687;50.836;12.060;2024-02-23T12:09:00;11.40;62.00
19110;DHT22;9687;50.836;12.060;2024-02-23T12:11:27;11.50;62.10
19110;DHT22;9687;50.836;12.060;2024-02-23T12:13:56;11.40;61.60
19110;DHT22;9687;50.836;12.060;2024-02-23T12:16:24;11.40;61.70
19110;DHT22;9687;50.836;12.060;2024-02-23T12:18:53;11.30;61.60
19110;DHT22;9687;50.836;12.060;2024-02-23T12:21:21;11.20;61.70
19110;DHT22;9687;50.836;12.060;2024-02-23T12:23:50;11.20;61.90
19110;DHT22;9687;50.836;12.060;2024-02-23T12:26:17;11.20;61.90
19110;DHT22;9687;50.836;12.060;2024-02-23T12:28:45;11.20;61.50
19110;DHT22;9687;50.836;12.060;2024-02-23T12:31:14;11.20;61.80
19110;DHT22;9687;50.836;12.060;2024-02-23T12:33:41;11.20;61.90
19110;DHT22;9687;50.836;12.060;2024-02-23T12:36:13;11.20;62.00
19110;DHT22;9687;50.836;12.060;2024-02-23T12:38:41;11.30;62.10
19110;DHT22;9687;50.836;12.060;2024-02-23T12:41:08;11.20;62.10
19110;DHT22;9687;50.836;12.060;2024-02-23T12:43:35;11.20;62.00
19110;DHT22;9687;50.836;12.060;2024-02-23T12:46:03;11.20;62.30
19110;DHT22;9687;50.836;12.060;2024-02-23T12:48:33;11.20;62.40
19110;DHT22;9687;50.836;12.060;2024-02-23T12:51:01;11.20;62.30
19110;DHT22;9687;50.836;12.060;2024-02-23T12:53:30;11.20;62.20
19110;DHT22;9687;50.836;12.060;2024-02-23T12:56:00;11.10;62.00
19110;DHT22;9687;50.836;12.060;2024-02-23T12:58:29;11.10;61.90
19110;DHT22;9687;50.836;12.060;2024-02-23T13:00:58;11.00;61.90
19110;DHT22;9687;50.836;12.060;2024-02-23T13:03:26;10.90;61.50
19110;DHT22;9687;50.836;12.060;2024-02-23T13:05:56;11.00;61.60
19110;DHT22;9687;50.836;12.060;2024-02-23T13:08:25;11.00;61.60
19110;DHT22;9687;50.836;12.060;2024-02-23T13:10:54;10.90;61.20
19110;DHT22;9687;50.836;12.060;2024-02-23T13:13:21;10.90;61.40
19110;DHT22;9687;50.836;12.060;2024-02-23T13:15:50;11.00;61.60
19110;DHT22;9687;50.836;12.060;2024-02-23T13:18:18;11.00;61.30
19110;DHT22;9687;50.836;12.060;2024-02-23T13:20:45;11.00;61.10
19110;DHT22;9687;50.836;12.060;2024-02-23T13:23:14;10.90;61.20
19110;DHT22;9687;50.836;12.060;2024-02-23T13:25:42;10.90;61.20
19110;DHT22;9687;50.836;12.060;2024-02-23T13:28:10;10.90;61.30
19110;DHT22;9687;50.836;12.060;2024-02-23T13:30:38;10.90;61.30
19110;DHT22;9687;50.836;12.060;2024-02-23T13:33:06;11.00;61.40
19110;DHT22;9687;50.836;12.060;2024-02-23T13:35:34;11.00;61.40
19110;DHT22;9687;50.836;12.060;2024-02-23T13:38:01;11.00;61.10
19110;DHT22;9687;50.836;12.060;2024-02-23T13:40:34;10.90;60.90
19110;DHT22;9687;50.836;12.060;2024-02-23T13:43:01;10.90;61.10
19110;DHT22;9687;50.836;12.060;2024-02-23T13:45:28;10.90;61.00
19110;DHT22;9687;50.836;12.060;2024-02-23T13:47:56;10.90;60.90
19110;DHT22;9687;50.836;12.060;2024-02-23T13:50:24;10.90;60.90
19110;DHT22;9687;50.836;12.060;2024-02-23T13:52:52;10.90;60.90
19110;DHT22;9687;50.836;12.060;2024-02-23T13:55:19;10.80;60.70
19110;DHT22;9687;50.836;12.060;2024-02-23T13:57:49;10.80;60.80
19110;DHT22;9687;50.836;12.060;2024-02-23T14:00:16;10.80;60.90
19110;DHT22;9687;50.836;12.060;2024-02-23T14:02:44;10.80;61.10
19110;DHT22;9687;50.836;12.060;2024-02-23T14:05:12;10.80;60.90
19110;DHT22;9687;50.836;12.060;2024-02-23T14:07:41;10.80;60.80
19110;DHT22;9687;50.836;12.060;2024-02-23T14:10:10;10.80;60.80
19110;DHT22;9687;50.836;12.060;2024-02-23T14:12:37;10.80;60.90
19110;DHT22;9687;50.836;12.060;2024-02-23T14:15:07;10.70;60.60
19110;DHT22;9687;50.836;12.060;2024-02-23T14:17:36;10.70;60.70
19110;DHT22;9687;50.836;12.060;2024-02-23T14:20:05;10.90;60.50
19110;DHT22;9687;50.836;12.060;2024-02-23T14:22:34;10.70;60.40
19110;DHT22;9687;50.836;12.060;2024-02-23T14:25:02;10.60;60.50
19110;DHT22;9687;50.836;12.060;2024-02-23T14:27:30;10.70;60.80
19110;DHT22;9687;50.836;12.060;2024-02-23T14:29:58;10.80;60.80
19110;DHT22;9687;50.836;12.060;2024-02-23T14:32:27;10.70;60.80
19110;DHT22;9687;50.836;12.060;2024-02-23T14:34:56;10.70;60.70
19110;DHT22;9687;50.836;12.060;2024-02-23T14:37:24;10.70;60.60
19110;DHT22;9687;50.836;12.060;2024-02-23T14:39:52;10.70;60.80
19110;DHT22;9687;50.836;12.060;2024-02-23T14:42:20;10.80;60.90
19110;DHT22;9687;50.836;12.060;2024-02-23T14:44:47;10.80;61.00
19110;DHT22;9687;50.836;12.060;2024-02-23T14:47:16;10.80;60.90
19110;DHT22;9687;50.836;12.060;2024-02-23T14:49:44;10.80;61.20
19110;DHT22;9687;50.836;12.060;2024-02-23T14:52:11;10.80;60.80
19110;DHT22;9687;50.836;12.060;2024-02-23T14:54:41;10.80;60.70
19110;DHT22;9687;50.836;12.060;2024-02-23T14:57:08;10.80;60.80
19110;DHT22;9687;50.836;12.060;2024-02-23T14:59:35;10.80;60.90
19110;DHT22;9687;50.836;12.060;2024-02-23T15:02:07;10.80;61.00
19110;DHT22;9687;50.836;12.060;2024-02-23T15:04:35;10.80;60.90
19110;DHT22;9687;50.836;12.060;2024-02-23T15:07:03;10.80;61.00
19110;DHT22;9687;50.836;12.060;2024-02-23T15:09:31;10.90;61.00
19110;DHT22;9687;50.836;12.060;2024-02-23T15:11:58;10.80;61.00
19110;DHT22;9687;50.836;12.060;2024-02-23T15:14:25;10.90;61.10
19110;DHT22;9687;50.836;12.060;2024-02-23T15:16:52;10.90;61.10
19110;DHT22;9687;50.836;12.060;2024-02-23T15:19:20;10.90;61.20
19110;DHT22;9687;50.836;12.060;2024-02-23T15:21:49;10.90;61.20
19110;DHT22;9687;50.836;12.060;2024-02-23T15:24:20;10.90;61.20
19110;DHT22;9687;50.836;12.060;2024-02-23T15:26:49;10.90;61.20
19110;DHT22;9687;50.836;12.060;2024-02-23T15:29:17;11.00;61.20
19110;DHT22;9687;50.836;12.060;2024-02-23T15:31:44;11.00;61.20
19110;DHT22;9687;50.836;12.060;2024-02-23T15:34:12;11.00;61.30